Time;durP1;ratioP1;P1;durP2;ratioP2;P2;SDS_P1;SDS_P2;PMS_P1;PMS_P2;Temp;Humidity;BMP_temperature;BMP_pressure;BME280_temperature;BME280_humidity;BME280_pressure;Samples;Min_cycle;Max_cycle;Signal;HPM_P1;HPM_P2
2022/06/26 00:06:37;;;;;;;4.57;2.90;;;20.80;84.00;;;;;;21040882;28;20232;-73
2022/06/26 00:16:39;;;;;;;3.57;2.87;;;20.70;84.90;;;;;;21061980;28;20210;-69
2022/06/26 00:26:41;;;;;;;3.93;3.30;;;20.60;85.80;;;;;;21082004;28;20234;-73
2022/06/26 00:36:43;;;;;;;3.57;3.27;;;20.50;86.50;;;;;;21038464;28;20613;-73
2022/06/26 00:46:45;;;;;;;5.57;3.30;;;20.40;87.20;;;;;;21044137;28;20244;-71
2022/06/26 00:56:48;;;;;;;4.03;3.13;;;20.30;88.30;;;;;;21061728;28;20204;-71
2022/06/26 01:06:50;;;;;;;5.47;3.00;;;20.20;89.10;;;;;;21067388;28;20242;-77
2022/06/26 01:16:52;;;;;;;4.50;3.20;;;20.10;89.70;;;;;;21059668;28;20204;-70
2022/06/26 01:26:54;;;;;;;5.80;3.10;;;20.10;90.00;;;;;;21050596;28;20233;-69
2022/06/26 01:36:56;;;;;;;3.63;3.00;;;19.90;90.50;;;;;;21052460;28;20212;-69
2022/06/26 01:46:57;;;;;;;5.17;2.93;;;19.70;90.50;;;;;;21013519;28;20247;-74
2022/06/26 01:56:59;;;;;;;4.20;3.80;;;19.60;91.00;;;;;;20999710;28;20210;-68
2022/06/26 02:07:01;;;;;;;4.00;3.27;;;19.50;91.20;;;;;;21009894;28;20426;-73
2022/06/26 02:17:03;;;;;;;6.63;3.10;;;19.40;91.50;;;;;;21015708;28;20207;-70
2022/06/26 02:27:05;;;;;;;5.00;3.10;;;19.30;91.60;;;;;;20996789;28;20703;-68
2022/06/26 02:37:06;;;;;;;3.10;2.80;;;19.20;91.80;;;;;;20996973;28;20235;-72
2022/06/26 02:47:08;;;;;;;4.23;3.10;;;19.10;92.10;;;;;;20995472;28;20276;-81
2022/06/26 02:57:10;;;;;;;3.23;2.93;;;18.90;92.40;;;;;;20995250;28;20614;-79
2022/06/26 03:07:12;;;;;;;5.17;4.00;;;19.00;92.60;;;;;;20995969;28;20231;-69
2022/06/26 03:17:15;;;;;;;4.80;3.23;;;19.00;92.70;;;;;;20992947;28;20213;-71
2022/06/26 03:27:17;;;;;;;3.90;3.20;;;19.20;92.90;;;;;;21030334;28;20235;-69
2022/06/26 03:37:18;;;;;;;3.67;3.03;;;19.20;92.80;;;;;;21017829;28;20213;-71
2022/06/26 03:47:20;;;;;;;7.37;3.07;;;19.10;92.90;;;;;;21007460;28;20582;-70
2022/06/26 03:57:22;;;;;;;5.93;2.90;;;19.10;92.80;;;;;;21006330;28;20205;-71
2022/06/26 04:07:25;;;;;;;4.53;2.90;;;19.10;92.80;;;;;;21006232;28;20717;-72
2022/06/26 04:17:26;;;;;;;3.80;3.07;;;19.20;92.90;;;;;;21005542;28;20571;-69
2022/06/26 04:27:28;;;;;;;5.13;3.30;;;19.20;93.00;;;;;;20986714;28;20235;-70
2022/06/26 04:37:30;;;;;;;3.97;3.00;;;19.40;93.00;;;;;;20985803;28;20212;-70
2022/06/26 04:47:33;;;;;;;2.87;2.50;;;19.70;93.00;;;;;;21002389;28;20735;-68
2022/06/26 04:57:35;;;;;;;4.73;3.10;;;20.00;92.50;;;;;;20983629;28;20259;-73
2022/06/26 05:07:37;;;;;;;3.60;2.80;;;20.30;92.10;;;;;;20983295;28;20239;-69
2022/06/26 05:17:40;;;;;;;4.50;2.60;;;20.40;91.90;;;;;;21000236;28;20680;-77
2022/06/26 05:27:41;;;;;;;3.97;2.60;;;20.40;91.60;;;;;;20999893;28;20232;-71
2022/06/26 05:37:43;;;;;;;4.07;2.43;;;20.40;91.20;;;;;;21003153;28;20240;-70
2022/06/26 05:47:45;;;;;;;2.50;2.30;;;20.40;91.00;;;;;;21000213;28;20246;-71
2022/06/26 05:57:46;;;;;;;2.97;2.67;;;20.60;90.50;;;;;;20997664;28;20658;-67
2022/06/26 06:07:48;;;;;;;5.83;2.60;;;20.90;90.20;;;;;;20996754;28;20235;-71
2022/06/26 06:17:50;;;;;;;4.93;2.40;;;21.20;89.90;;;;;;20995923;28;20203;-71
2022/06/26 06:27:52;;;;;;;5.17;3.10;;;21.40;89.30;;;;;;20995294;28;20593;-71
2022/06/26 06:37:54;;;;;;;4.10;2.70;;;21.70;89.10;;;;;;20995139;28;20211;-68
2022/06/26 06:47:55;;;;;;;4.03;2.30;;;21.90;88.80;;;;;;21005865;28;20689;-68
2022/06/26 06:57:57;;;;;;;3.67;2.90;;;22.20;89.70;;;;;;21014579;28;20211;-71
2022/06/26 07:08:00;;;;;;;7.40;3.50;;;22.50;88.40;;;;;;21028230;28;20686;-69
2022/06/26 07:18:02;;;;;;;8.10;3.60;;;22.70;88.20;;;;;;21010148;28;20203;-72
2022/06/26 07:28:04;;;;;;;5.60;3.60;;;22.90;87.60;;;;;;21008760;28;20238;-72
2022/06/26 07:38:06;;;;;;;5.97;2.90;;;23.20;87.00;;;;;;21009151;28;20214;-72
2022/06/26 07:48:08;;;;;;;5.67;2.83;;;23.50;86.10;;;;;;21007198;28;20238;-70
2022/06/26 07:58:09;;;;;;;4.50;2.60;;;23.80;85.00;;;;;;21005701;28;20625;-71
2022/06/26 08:08:11;;;;;;;3.10;2.30;;;24.00;84.00;;;;;;21005870;28;20238;-68
2022/06/26 08:18:13;;;;;;;3.50;2.63;;;24.20;82.90;;;;;;21003326;28;20207;-73
2022/06/26 08:28:15;;;;;;;6.00;2.90;;;24.40;81.70;;;;;;21003676;28;20239;-71
2022/06/26 08:38:16;;;;;;;4.70;2.30;;;24.70;81.10;;;;;;21002176;28;20203;-72
2022/06/26 08:48:20;;;;;;;3.93;2.83;;;24.90;80.10;;;;;;21000802;28;20706;-73
2022/06/26 08:58:22;;;;;;;3.97;2.57;;;25.10;79.20;;;;;;21001290;28;20214;-72
2022/06/26 09:08:26;;;;;;;3.37;2.57;;;25.30;77.60;;;;;;20981771;28;20240;-75
2022/06/26 09:18:36;;;;;;;2.67;2.10;;;25.40;76.60;;;;;;20999355;28;20207;-75
2022/06/26 09:28:38;;;;;;;2.43;2.07;;;25.50;76.00;;;;;;20997252;28;20234;-73
2022/06/26 09:38:39;;;;;;;2.47;2.27;;;25.80;75.50;;;;;;20998176;28;20203;-73
2022/06/26 09:48:42;;;;;;;2.87;2.20;;;25.80;74.50;;;;;;20997913;28;20243;-75
2022/06/26 09:58:44;;;;;;;4.97;2.00;;;25.90;73.90;;;;;;20997375;28;20210;-74
2022/06/26 10:08:46;;;;;;;3.37;2.10;;;25.70;73.40;;;;;;20996065;28;20317;-74
2022/06/26 10:19:19;;;;;;;2.37;2.17;;;25.70;73.10;;;;;;20996099;28;20207;-75
2022/06/26 10:29:49;;;;;;;3.53;1.90;;;25.80;72.00;;;;;;20989231;28;20235;-74
2022/06/26 10:39:55;;;;;;;6.50;5.90;;;25.80;71.30;;;;;;20995057;28;20598;-71
2022/06/26 10:49:56;;;;;;;3.27;2.10;;;26.00;70.90;;;;;;20994954;28;20597;-74
2022/06/26 10:59:59;;;;;;;5.83;2.00;;;26.30;70.10;;;;;;20993873;28;20207;-74
2022/06/26 11:10:01;;;;;;;4.63;2.27;;;26.50;69.40;;;;;;21076727;28;20234;-70
2022/06/26 11:30:23;;;;;;;3.20;1.80;;;26.90;67.40;;;;;;21087494;28;20596;-72
2022/06/26 11:40:25;;;;;;;1.70;1.60;;;27.10;66.60;;;;;;21092109;28;20230;-72
2022/06/26 11:50:33;;;;;;;2.23;1.80;;;27.00;65.50;;;;;;21092219;28;20720;-74
2022/06/26 12:00:35;;;;;;;2.77;2.20;;;27.20;64.30;;;;;;21120551;28;20206;-74
2022/06/26 12:10:37;;;;;;;3.00;1.73;;;27.50;63.70;;;;;;21090857;28;20246;-69
2022/06/26 12:20:41;;;;;;;2.20;1.73;;;27.80;62.60;;;;;;21088841;28;20252;-70
2022/06/26 12:30:44;;;;;;;3.50;2.80;;;28.10;61.70;;;;;;21093129;28;20231;-71
2022/06/26 12:40:45;;;;;;;2.37;1.80;;;27.90;60.70;;;;;;21105549;28;20231;-75
2022/06/26 12:50:47;;;;;;;2.03;1.60;;;27.70;60.30;;;;;;21087405;28;20231;-72
2022/06/26 13:00:49;;;;;;;1.80;1.70;;;28.00;59.50;;;;;;21085918;28;20607;-69
2022/06/26 13:10:52;;;;;;;1.90;1.63;;;28.10;59.10;;;;;;21085031;28;20230;-71
2022/06/26 13:20:54;;;;;;;2.23;1.70;;;28.30;58.30;;;;;;21066226;28;20207;-72
2022/06/26 13:30:56;;;;;;;2.37;1.50;;;28.20;57.70;;;;;;21082479;28;20227;-71
2022/06/26 13:40:58;;;;;;;1.90;1.60;;;28.10;56.70;;;;;;21081838;28;20254;-69
2022/06/26 13:51:00;;;;;;;2.03;1.83;;;28.10;56.90;;;;;;21081745;28;20226;-72
2022/06/26 14:01:05;;;;;;;2.00;1.90;;;28.20;56.90;;;;;;21080914;28;20302;-70
2022/06/26 14:11:07;;;;;;;1.80;1.70;;;28.20;56.40;;;;;;21080568;28;20230;-76
2022/06/26 14:21:09;;;;;;;2.03;1.70;;;28.50;56.10;;;;;;21079981;28;20249;-74
2022/06/26 14:31:11;;;;;;;2.20;1.65;;;28.90;55.00;;;;;;21078818;28;20237;-71
2022/06/26 14:41:13;;;;;;;1.70;1.60;;;29.10;54.30;;;;;;21078129;28;20283;-70
2022/06/26 14:51:15;;;;;;;2.17;1.98;;;29.40;54.20;;;;;;21077858;28;20241;-70
2022/06/26 15:01:17;;;;;;;1.67;1.50;;;29.40;53.80;;;;;;21078116;28;20203;-73
2022/06/26 15:11:19;;;;;;;2.05;1.60;;;29.70;53.00;;;;;;21091005;28;20288;-72
2022/06/26 15:21:21;;;;;;;5.45;2.30;;;29.90;52.90;;;;;;21097666;28;20216;-75
2022/06/26 15:31:22;;;;;;;2.72;1.70;;;30.10;52.40;;;;;;21097275;28;20241;-70
2022/06/26 15:41:24;;;;;;;2.78;2.00;;;30.10;52.30;;;;;;21074246;28;20760;-71
2022/06/26 15:51:26;;;;;;;1.70;1.60;;;30.10;52.40;;;;;;21091362;28;20237;-69
2022/06/26 16:01:28;;;;;;;1.48;1.38;;;30.40;52.10;;;;;;21090256;28;20735;-71
2022/06/26 16:11:30;;;;;;;3.55;1.60;;;30.70;51.20;;;;;;21089437;28;20230;-70
2022/06/26 16:21:31;;;;;;;1.90;1.70;;;30.40;52.20;;;;;;21088652;28;20207;-70
2022/06/26 16:31:34;;;;;;;2.65;1.90;;;30.60;52.20;;;;;;21088109;28;20612;-73
2022/06/26 16:41:36;;;;;;;3.25;1.45;;;29.80;53.00;;;;;;21086959;28;20276;-72
2022/06/26 16:51:38;;;;;;;3.05;1.70;;;29.30;53.50;;;;;;21093195;28;20231;-70
2022/06/26 17:01:40;;;;;;;1.83;1.50;;;29.30;53.80;;;;;;21092293;28;20226;-74
2022/06/26 17:11:43;;;;;;;2.00;1.80;;;29.30;53.90;;;;;;21081985;28;20310;-75
2022/06/26 17:21:45;;;;;;;2.55;1.88;;;28.80;54.20;;;;;;21082953;28;20221;-73
2022/06/26 17:31:48;;;;;;;12.07;1.98;;;28.70;54.70;;;;;;21087521;28;20230;-69
2022/06/26 17:41:50;;;;;;;6.85;1.95;;;28.60;55.90;;;;;;21084326;28;20750;-69
2022/06/26 17:51:55;;;;;;;10.25;2.22;;;29.10;56.30;;;;;;21082827;28;20630;-71
2022/06/26 18:01:57;;;;;;;3.63;1.92;;;28.70;56.70;;;;;;21087340;28;20674;-74
2022/06/26 18:11:59;;;;;;;1.70;1.60;;;28.60;57.00;;;;;;21102493;28;20252;-78
2022/06/26 18:22:02;;;;;;;3.20;1.90;;;28.30;57.20;;;;;;21137381;28;20214;-75
2022/06/26 18:32:05;;;;;;;5.33;2.10;;;28.00;57.90;;;;;;21092836;28;20234;-76
2022/06/26 18:42:07;;;;;;;3.53;2.50;;;27.70;58.80;;;;;;21077713;28;20235;-66
2022/06/26 18:52:08;;;;;;;2.83;2.50;;;27.40;59.80;;;;;;21101707;28;20593;-69
2022/06/26 19:02:10;;;;;;;7.80;2.30;;;27.10;61.00;;;;;;21145877;28;20548;-73
2022/06/26 19:22:35;;;;;;;3.33;2.30;;;26.70;63.60;;;;;;21105073;28;20237;-64
2022/06/26 19:32:37;;;;;;;2.30;2.10;;;26.60;65.50;;;;;;21090264;28;20321;-63
2022/06/26 19:42:40;;;;;;;2.33;2.13;;;26.50;66.50;;;;;;21182343;28;20969;-78
2022/06/26 19:52:46;;;;;;;2.40;2.20;;;26.50;67.50;;;;;;21178574;28;20230;-62
2022/06/26 20:02:48;;;;;;;2.20;1.93;;;26.40;68.50;;;;;;21157675;28;20206;-64
2022/06/26 20:12:51;;;;;;;3.80;2.30;;;26.30;69.60;;;;;;21174248;28;20233;-75
2022/06/26 20:22:52;;;;;;;5.13;2.73;;;26.10;70.70;;;;;;21118029;28;20650;-65
2022/06/26 20:32:55;;;;;;;2.80;2.50;;;26.00;71.80;;;;;;21087754;28;20234;-73
2022/06/26 20:42:57;;;;;;;2.73;2.27;;;25.90;72.60;;;;;;21086537;28;20241;-78
2022/06/26 20:53:00;;;;;;;6.43;2.73;;;25.70;73.50;;;;;;21086123;28;20295;-72
2022/06/26 21:03:01;;;;;;;3.70;2.20;;;25.30;74.80;;;;;;21082944;28;20203;-74
2022/06/26 21:13:03;;;;;;;2.67;2.43;;;25.00;76.10;;;;;;21084403;28;20237;-76
2022/06/26 21:23:05;;;;;;;2.80;2.43;;;24.80;77.10;;;;;;21084467;28;20654;-64
2022/06/26 21:33:08;;;;;;;2.83;2.43;;;24.60;78.30;;;;;;21083861;28;20245;-65
2022/06/26 21:43:10;;;;;;;2.80;2.50;;;24.40;79.30;;;;;;21082852;28;20239;-63
2022/06/26 21:53:12;;;;;;;2.83;2.60;;;24.30;80.40;;;;;;21081749;28;20766;-65
2022/06/26 22:03:13;;;;;;;5.17;2.50;;;24.20;81.30;;;;;;21066105;28;20206;-73
2022/06/26 22:13:16;;;;;;;4.20;2.70;;;24.10;82.00;;;;;;21080101;28;20234;-76
2022/06/26 22:23:17;;;;;;;2.87;2.57;;;24.00;82.70;;;;;;21079903;28;20282;-72
2022/06/26 22:33:19;;;;;;;3.67;2.53;;;23.80;83.70;;;;;;21080333;28;20237;-78
2022/06/26 22:43:21;;;;;;;3.50;2.60;;;23.70;85.10;;;;;;21078481;28;20234;-77
2022/06/26 22:53:23;;;;;;;5.57;2.70;;;23.70;86.10;;;;;;21060253;28;20279;-67
2022/06/26 23:03:25;;;;;;;4.23;2.70;;;23.60;86.60;;;;;;21078302;28;20206;-68
2022/06/26 23:13:27;;;;;;;2.80;2.60;;;23.50;87.10;;;;;;21081537;28;20317;-76
2022/06/26 23:23:29;;;;;;;3.73;3.03;;;23.40;87.60;;;;;;21077516;28;20205;-66
2022/06/26 23:33:30;;;;;;;2.97;2.60;;;23.50;88.30;;;;;;21092043;28;20238;-66
2022/06/26 23:43:32;;;;;;;4.10;2.70;;;23.50;88.30;;;;;;21092200;28;20237;-64
2022/06/26 23:53:34;;;;;;;2.97;2.77;;;23.50;88.70;;;;;;21093719;28;20694;-69
